Time;durP1;ratioP1;P1;durP2;ratioP2;P2;SDS_P1;SDS_P2;PMS_P1;PMS_P2;Temp;Humidity;BMP_temperature;BMP_pressure;BME280_temperature;BME280_humidity;BME280_pressure;Samples;Min_cycle;Max_cycle;Signal;HPM_P1;HPM_P2
2022/08/28 00:01:44;;;;;;;4.25;2.03;;;18.80;99.90;;;;;;5026083;28;20602;-83
2022/08/28 00:04:09;;;;;;;4.00;2.00;;;18.70;99.90;;;;;;5024264;28;20018;-85
2022/08/28 00:06:34;;;;;;;2.22;1.80;;;18.60;99.90;;;;;;5025358;28;20021;-85
2022/08/28 00:09:00;;;;;;;2.03;1.70;;;18.70;99.90;;;;;;5025077;28;20026;-86
2022/08/28 00:11:25;;;;;;;6.13;2.20;;;18.70;99.90;;;;;;5025165;28;20377;-83
2022/08/28 00:13:51;;;;;;;3.55;2.10;;;18.70;99.90;;;;;;5024312;28;20029;-86
2022/08/28 00:16:17;;;;;;;3.88;2.08;;;18.60;99.90;;;;;;5024118;28;20037;-86
2022/08/28 00:18:43;;;;;;;1.85;1.50;;;18.60;99.90;;;;;;5027439;28;20056;-85
2022/08/28 00:21:09;;;;;;;2.08;1.88;;;18.60;99.90;;;;;;5025926;28;20021;-87
2022/08/28 00:23:35;;;;;;;2.97;2.17;;;18.50;99.90;;;;;;5024065;28;20392;-85
2022/08/28 00:26:01;;;;;;;3.45;2.10;;;18.60;99.90;;;;;;5023635;28;20025;-85
2022/08/28 00:28:26;;;;;;;3.17;2.20;;;18.60;99.90;;;;;;5025112;28;20365;-86
2022/08/28 00:30:55;;;;;;;2.58;2.22;;;18.50;99.90;;;;;;5023003;28;20041;-86
2022/08/28 00:33:24;;;;;;;2.88;2.10;;;18.50;99.90;;;;;;5024825;28;20137;-87
2022/08/28 00:35:51;;;;;;;2.70;1.67;;;18.60;99.90;;;;;;5025094;28;20048;-87
2022/08/28 00:38:18;;;;;;;2.90;2.10;;;18.60;99.90;;;;;;5025604;28;20043;-87
2022/08/28 00:40:46;;;;;;;2.10;1.45;;;18.50;99.90;;;;;;5024516;28;20635;-86
2022/08/28 00:43:38;;;;;;;2.75;1.70;;;18.60;99.90;;;;;;5028298;28;20032;-86
2022/08/28 00:46:09;;;;;;;2.22;1.95;;;18.60;99.90;;;;;;5028734;28;20052;-86
2022/08/28 00:48:35;;;;;;;2.75;1.77;;;18.60;99.90;;;;;;5025567;28;20029;-87
2022/08/28 00:53:46;;;;;;;2.53;1.70;;;18.50;99.90;;;;;;5023015;28;20095;-87
2022/08/28 00:56:14;;;;;;;5.80;1.83;;;18.50;99.90;;;;;;5028245;28;20025;-86
2022/08/28 00:58:43;;;;;;;1.88;1.42;;;18.60;99.90;;;;;;5029798;28;20575;-87
2022/08/28 01:01:09;;;;;;;2.22;1.40;;;18.60;99.90;;;;;;5026583;28;20838;-87
2022/08/28 01:03:36;;;;;;;4.57;2.47;;;18.70;99.90;;;;;;5024909;28;20025;-86
2022/08/28 01:06:02;;;;;;;2.42;1.92;;;18.70;99.90;;;;;;5029278;28;20021;-87
2022/08/28 01:08:30;;;;;;;2.47;1.50;;;18.70;99.90;;;;;;5026743;28;20037;-87
2022/08/28 01:10:57;;;;;;;1.73;1.33;;;18.70;99.90;;;;;;5029424;28;20029;-87
2022/08/28 01:13:25;;;;;;;2.30;1.70;;;18.70;99.90;;;;;;5028870;28;20037;-85
2022/08/28 01:15:51;;;;;;;2.30;1.90;;;18.60;99.90;;;;;;5024847;28;20079;-86
2022/08/28 01:18:18;;;;;;;1.63;1.52;;;18.60;99.90;;;;;;5029579;28;20030;-87
2022/08/28 01:20:52;;;;;;;2.85;1.73;;;18.60;99.90;;;;;;5028834;28;20025;-85
2022/08/28 01:23:27;;;;;;;3.40;2.63;;;18.60;99.90;;;;;;5025577;28;20387;-88
2022/08/28 01:25:53;;;;;;;3.05;2.30;;;18.60;99.90;;;;;;5026029;28;20079;-87
2022/08/28 01:28:19;;;;;;;2.90;1.63;;;18.60;99.90;;;;;;5025102;28;20104;-86
2022/08/28 01:30:47;;;;;;;3.53;2.00;;;18.60;99.90;;;;;;5022724;28;20510;-88
2022/08/28 01:33:14;;;;;;;3.30;1.98;;;18.50;99.90;;;;;;5023936;28;20021;-86
2022/08/28 01:35:43;;;;;;;4.72;2.10;;;18.50;99.90;;;;;;5025225;28;20057;-87
2022/08/28 01:38:08;;;;;;;3.30;2.08;;;18.50;99.90;;;;;;5024263;28;20021;-87
2022/08/28 01:40:38;;;;;;;4.22;2.20;;;18.50;99.90;;;;;;5016269;28;20087;-87
2022/08/28 01:43:10;;;;;;;2.47;1.77;;;18.50;99.90;;;;;;5028353;28;20053;-84
2022/08/28 01:45:36;;;;;;;4.07;2.72;;;18.50;99.90;;;;;;5024470;28;20411;-88
2022/08/28 01:48:04;;;;;;;3.70;2.25;;;18.50;99.90;;;;;;5027453;28;20031;-86
2022/08/28 01:50:30;;;;;;;7.05;2.83;;;18.50;99.90;;;;;;5027374;28;20120;-87
2022/08/28 01:52:56;;;;;;;5.03;2.30;;;18.50;99.90;;;;;;5028618;28;20030;-86
2022/08/28 01:55:21;;;;;;;3.17;2.80;;;18.50;99.90;;;;;;5028320;28;20030;-86
2022/08/28 01:57:51;;;;;;;5.45;2.33;;;18.40;99.90;;;;;;5025501;28;20029;-85
2022/08/28 02:00:17;;;;;;;9.05;3.08;;;18.40;99.90;;;;;;5025069;28;20036;-87
2022/08/28 02:02:43;;;;;;;4.03;2.70;;;18.30;99.90;;;;;;5029131;28;20025;-87
2022/08/28 02:05:10;;;;;;;3.42;2.35;;;18.30;99.90;;;;;;5026910;28;20120;-84
2022/08/28 02:07:36;;;;;;;5.35;2.72;;;18.40;99.90;;;;;;5027147;28;20029;-87
2022/08/28 02:10:02;;;;;;;4.78;2.47;;;18.40;99.90;;;;;;5029446;28;20037;-87
2022/08/28 02:12:29;;;;;;;6.68;3.35;;;18.40;99.90;;;;;;5023846;28;20068;-85
2022/08/28 02:14:54;;;;;;;7.28;2.88;;;18.40;99.90;;;;;;5029366;28;20532;-85
2022/08/28 02:17:20;;;;;;;3.42;2.60;;;18.40;99.90;;;;;;5029016;28;20075;-83
2022/08/28 02:19:45;;;;;;;4.88;2.67;;;18.40;99.90;;;;;;5028557;28;20029;-84
2022/08/28 02:22:12;;;;;;;6.72;3.88;;;18.40;99.90;;;;;;5028073;28;20029;-85
2022/08/28 02:24:38;;;;;;;5.93;3.05;;;18.30;99.90;;;;;;5027346;28;20038;-87
2022/08/28 02:27:04;;;;;;;4.57;2.83;;;18.30;99.90;;;;;;5028587;28;20048;-84
2022/08/28 02:29:29;;;;;;;4.15;3.03;;;18.30;99.90;;;;;;5025649;28;20477;-85
2022/08/28 02:31:54;;;;;;;5.28;2.70;;;18.30;99.90;;;;;;5027838;28;20052;-85
2022/08/28 02:34:20;;;;;;;4.75;3.05;;;18.30;99.90;;;;;;5025025;28;20136;-82
2022/08/28 02:36:46;;;;;;;4.50;3.00;;;18.30;99.90;;;;;;5024657;28;20025;-86
2022/08/28 02:39:11;;;;;;;4.38;2.50;;;18.30;99.90;;;;;;5027677;28;20064;-85
2022/08/28 02:41:37;;;;;;;5.53;3.22;;;18.30;99.90;;;;;;5027753;28;20596;-85
2022/08/28 02:44:03;;;;;;;7.75;3.30;;;18.30;99.90;;;;;;5027309;28;20021;-86
2022/08/28 02:46:28;;;;;;;5.95;3.45;;;18.30;99.90;;;;;;5009917;28;20036;-85
2022/08/28 02:48:55;;;;;;;4.13;2.85;;;18.20;99.90;;;;;;5025991;28;20036;-85
2022/08/28 02:51:20;;;;;;;8.25;4.07;;;18.20;99.90;;;;;;5026163;28;20033;-84
2022/08/28 02:53:46;;;;;;;8.55;3.33;;;18.20;99.90;;;;;;5027182;28;20030;-87
2022/08/28 02:56:12;;;;;;;3.55;2.92;;;18.20;99.90;;;;;;5026385;28;20029;-86
2022/08/28 02:58:38;;;;;;;4.13;2.45;;;18.10;99.90;;;;;;5025447;28;20025;-86
2022/08/28 03:01:06;;;;;;;5.10;3.22;;;18.10;99.90;;;;;;5023987;28;20050;-87
2022/08/28 03:03:32;;;;;;;5.22;3.00;;;18.10;99.90;;;;;;5024418;28;20029;-86
2022/08/28 03:05:59;;;;;;;5.63;3.17;;;18.20;99.90;;;;;;5027987;28;20512;-86
2022/08/28 03:08:26;;;;;;;5.30;2.40;;;18.10;99.90;;;;;;5028248;28;20033;-86
2022/08/28 03:10:51;;;;;;;4.75;3.13;;;18.10;99.90;;;;;;5024718;28;20112;-86
2022/08/28 03:13:17;;;;;;;3.22;2.58;;;18.10;99.90;;;;;;5025324;28;20372;-86
2022/08/28 03:15:43;;;;;;;3.22;2.35;;;18.00;99.90;;;;;;5026336;28;20029;-84
2022/08/28 03:18:10;;;;;;;6.75;2.42;;;18.10;99.90;;;;;;5025990;28;20029;-84
2022/08/28 03:20:36;;;;;;;2.95;2.42;;;18.00;99.90;;;;;;5024269;28;20036;-86
2022/08/28 03:25:46;;;;;;;3.83;2.67;;;17.90;99.90;;;;;;5023624;28;20052;-82
2022/08/28 03:28:11;;;;;;;4.47;2.25;;;17.90;99.90;;;;;;5027021;28;20029;-86
2022/08/28 03:30:37;;;;;;;5.05;2.55;;;18.00;99.90;;;;;;5025196;28;20049;-85
2022/08/28 03:33:03;;;;;;;2.92;2.05;;;18.00;99.90;;;;;;5024290;28;20033;-82
2022/08/28 03:35:28;;;;;;;3.05;1.90;;;17.90;99.90;;;;;;5025804;28;20531;-85
2022/08/28 03:37:54;;;;;;;2.40;1.88;;;17.90;99.90;;;;;;5027729;28;20041;-85
2022/08/28 03:40:20;;;;;;;4.18;2.40;;;17.90;99.90;;;;;;5024304;28;20372;-83
2022/08/28 03:42:45;;;;;;;1.95;1.70;;;17.90;99.90;;;;;;5026129;28;20108;-86
2022/08/28 03:45:11;;;;;;;3.40;1.92;;;17.80;99.90;;;;;;5023338;28;20153;-84
2022/08/28 03:47:38;;;;;;;3.33;1.83;;;17.80;99.90;;;;;;5027872;28;20045;-86
2022/08/28 03:50:05;;;;;;;2.70;1.90;;;17.90;99.90;;;;;;5026252;28;20029;-85
2022/08/28 03:52:31;;;;;;;2.47;1.75;;;17.80;99.90;;;;;;5021685;28;20046;-83
2022/08/28 03:54:56;;;;;;;5.38;2.05;;;17.80;99.90;;;;;;5025566;28;20034;-86
2022/08/28 03:57:22;;;;;;;7.97;2.72;;;17.80;99.90;;;;;;5024073;28;20037;-86
2022/08/28 03:59:50;;;;;;;3.33;2.00;;;17.80;99.90;;;;;;5023703;28;20025;-84
2022/08/28 04:02:18;;;;;;;2.63;1.48;;;17.80;99.90;;;;;;5026307;28;20099;-83
2022/08/28 04:04:44;;;;;;;5.70;2.13;;;17.80;99.90;;;;;;5021816;28;20449;-85
2022/08/28 04:07:10;;;;;;;3.58;2.58;;;17.70;99.90;;;;;;5024345;28;20108;-84
2022/08/28 04:09:35;;;;;;;3.40;2.28;;;17.70;99.90;;;;;;5023104;28;20448;-83
2022/08/28 04:12:01;;;;;;;2.60;1.75;;;17.80;99.90;;;;;;5027076;28;20080;-85
2022/08/28 04:14:26;;;;;;;3.45;2.03;;;17.70;99.90;;;;;;5020220;28;20029;-86
2022/08/28 04:16:52;;;;;;;1.65;1.52;;;17.70;99.90;;;;;;5023295;28;20048;-84
2022/08/28 04:19:17;;;;;;;3.03;2.38;;;17.60;99.90;;;;;;5027325;28;20476;-86
2022/08/28 04:21:43;;;;;;;3.20;1.70;;;17.60;99.90;;;;;;5024535;28;20056;-83
2022/08/28 04:24:08;;;;;;;2.13;1.52;;;17.60;99.90;;;;;;5028375;28;20032;-85
2022/08/28 04:26:35;;;;;;;2.13;1.83;;;17.60;99.90;;;;;;5024048;28;20113;-85
2022/08/28 04:29:02;;;;;;;3.45;2.13;;;17.60;99.90;;;;;;5024321;28;20249;-86
2022/08/28 04:31:28;;;;;;;6.07;1.75;;;17.60;99.90;;;;;;5024489;28;20125;-83
2022/08/28 04:33:54;;;;;;;2.38;1.52;;;17.60;99.90;;;;;;5028105;28;20164;-82
2022/08/28 04:36:20;;;;;;;1.35;1.23;;;17.60;99.90;;;;;;5021443;28;20037;-85
2022/08/28 04:38:46;;;;;;;2.00;1.58;;;17.50;99.90;;;;;;5032085;28;20030;-82
2022/08/28 04:41:14;;;;;;;2.25;1.58;;;17.50;99.90;;;;;;5022054;28;20160;-85
2022/08/28 04:43:40;;;;;;;3.35;1.58;;;17.50;99.90;;;;;;5024824;28;20030;-83
2022/08/28 04:46:09;;;;;;;2.45;1.48;;;17.40;99.90;;;;;;5022462;28;20025;-83
2022/08/28 04:48:34;;;;;;;4.78;1.55;;;17.50;99.90;;;;;;5018622;28;20035;-83
2022/08/28 04:51:00;;;;;;;1.45;1.27;;;17.40;99.90;;;;;;5023340;28;20112;-85
2022/08/28 04:53:26;;;;;;;3.25;1.48;;;17.40;99.90;;;;;;5007375;28;20044;-83
2022/08/28 04:55:52;;;;;;;2.20;1.60;;;17.40;99.90;;;;;;5023743;28;20032;-86
2022/08/28 04:58:19;;;;;;;2.40;1.73;;;17.40;99.90;;;;;;5018654;28;20553;-83
2022/08/28 05:00:47;;;;;;;2.70;1.73;;;17.50;99.90;;;;;;5020911;28;20053;-85
2022/08/28 05:03:15;;;;;;;3.00;1.50;;;17.50;99.90;;;;;;5024569;28;20022;-85
2022/08/28 05:05:49;;;;;;;2.38;1.48;;;17.50;99.90;;;;;;5018288;28;20037;-85
2022/08/28 05:08:17;;;;;;;1.20;1.00;;;17.50;99.90;;;;;;5022563;28;20032;-84
2022/08/28 05:10:42;;;;;;;1.98;1.67;;;17.60;99.90;;;;;;5020901;28;20175;-83
2022/08/28 05:13:10;;;;;;;1.60;1.50;;;17.60;99.90;;;;;;5020019;28;20025;-84
2022/08/28 05:15:44;;;;;;;1.92;1.40;;;17.60;99.90;;;;;;5023951;28;20033;-85
2022/08/28 05:18:10;;;;;;;3.28;1.73;;;17.50;99.90;;;;;;5023706;28;20033;-82
2022/08/28 05:20:37;;;;;;;1.60;1.40;;;17.50;99.90;;;;;;5021630;28;20452;-83
2022/08/28 05:23:04;;;;;;;1.42;1.30;;;17.50;99.90;;;;;;5021937;28;20578;-83
2022/08/28 05:25:34;;;;;;;2.97;1.40;;;17.40;99.90;;;;;;5025730;28;20488;-84
2022/08/28 05:27:59;;;;;;;1.58;1.00;;;17.30;99.90;;;;;;5026182;28;20236;-80
2022/08/28 05:30:25;;;;;;;3.20;1.60;;;17.30;99.90;;;;;;5024472;28;20056;-81
2022/08/28 05:32:51;;;;;;;2.15;1.42;;;17.30;99.90;;;;;;5026086;28;20120;-83
2022/08/28 05:35:16;;;;;;;3.97;1.27;;;17.40;99.90;;;;;;5025779;28;20112;-83
2022/08/28 05:37:42;;;;;;;1.52;1.15;;;17.60;99.90;;;;;;5025162;28;20187;-80
2022/08/28 05:40:09;;;;;;;1.35;1.25;;;17.50;99.90;;;;;;5024632;28;20041;-82
2022/08/28 05:42:34;;;;;;;2.05;1.33;;;17.40;99.90;;;;;;5024028;28;20029;-79
2022/08/28 05:45:00;;;;;;;3.10;1.48;;;17.30;99.90;;;;;;5028930;28;20128;-79
2022/08/28 05:47:26;;;;;;;1.88;0.85;;;17.20;99.90;;;;;;5025189;28;20160;-84
2022/08/28 05:49:51;;;;;;;1.52;1.42;;;17.00;99.90;;;;;;5025053;28;20488;-81
2022/08/28 05:52:17;;;;;;;2.90;1.20;;;16.90;99.90;;;;;;5023839;28;20040;-84
2022/08/28 05:54:42;;;;;;;3.38;1.30;;;16.90;99.90;;;;;;5027244;28;20033;-86
2022/08/28 05:57:07;;;;;;;1.98;1.27;;;16.90;99.90;;;;;;5026640;28;20029;-84
2022/08/28 05:59:33;;;;;;;2.22;1.25;;;16.90;99.90;;;;;;5025064;28;20087;-88
2022/08/28 06:01:58;;;;;;;1.73;1.25;;;17.00;99.90;;;;;;5028825;28;20032;-83
2022/08/28 06:04:26;;;;;;;10.00;2.50;;;17.00;99.90;;;;;;5026020;28;20029;-87
2022/08/28 06:06:56;;;;;;;2.53;1.45;;;16.90;99.90;;;;;;5027568;28;20512;-90
2022/08/28 06:09:24;;;;;;;3.38;1.77;;;17.10;99.90;;;;;;5027753;28;20095;-86
2022/08/28 06:11:52;;;;;;;4.35;1.35;;;17.00;99.90;;;;;;5027793;28;20030;-89
2022/08/28 06:14:19;;;;;;;4.10;1.25;;;17.20;99.90;;;;;;5022602;28;20033;-86
2022/08/28 06:16:51;;;;;;;3.03;1.67;;;17.10;99.90;;;;;;5012124;28;20033;-84
2022/08/28 06:19:19;;;;;;;2.15;1.63;;;17.20;99.90;;;;;;5025548;28;20163;-87
2022/08/28 06:21:47;;;;;;;2.75;1.60;;;17.10;99.90;;;;;;5029122;28;20032;-84
2022/08/28 06:24:13;;;;;;;2.45;1.60;;;17.10;99.90;;;;;;5009822;28;20028;-85
2022/08/28 06:26:39;;;;;;;4.38;1.48;;;17.40;99.90;;;;;;5013753;28;20045;-84
2022/08/28 06:29:08;;;;;;;3.60;1.92;;;17.60;99.90;;;;;;5018863;28;20430;-85
2022/08/28 06:31:34;;;;;;;6.22;2.25;;;17.70;99.90;;;;;;5025241;28;20060;-84
2022/08/28 06:34:00;;;;;;;3.75;1.55;;;17.50;99.90;;;;;;5013828;28;20025;-85
2022/08/28 06:36:29;;;;;;;2.33;1.60;;;17.60;99.90;;;;;;5018604;28;20548;-79
2022/08/28 06:39:04;;;;;;;3.42;2.35;;;17.60;99.90;;;;;;5019291;28;20033;-78
2022/08/28 06:41:31;;;;;;;9.40;2.90;;;17.60;99.90;;;;;;5024862;28;20112;-78
2022/08/28 06:43:57;;;;;;;2.60;1.80;;;17.50;99.90;;;;;;5024109;28;20640;-79
2022/08/28 06:46:23;;;;;;;5.55;2.70;;;17.40;99.90;;;;;;5020632;28;20072;-81
2022/08/28 06:48:49;;;;;;;6.70;2.03;;;17.50;99.90;;;;;;5017768;28;20040;-81
2022/08/28 06:51:15;;;;;;;3.80;2.33;;;17.50;99.90;;;;;;5027363;28;20033;-79
2022/08/28 06:53:42;;;;;;;3.83;2.33;;;17.50;99.90;;;;;;5025512;28;20036;-80
2022/08/28 06:56:16;;;;;;;3.20;2.30;;;17.70;99.90;;;;;;5024544;28;20037;-79
2022/08/28 06:58:43;;;;;;;4.90;3.15;;;18.00;99.90;;;;;;5025928;28;20038;-79
2022/08/28 07:01:16;;;;;;;5.97;2.60;;;18.00;99.90;;;;;;5023200;28;20029;-80
2022/08/28 07:03:42;;;;;;;5.30;2.63;;;18.00;99.90;;;;;;5023763;28;20033;-81
2022/08/28 07:06:09;;;;;;;4.40;2.60;;;18.20;99.90;;;;;;5025224;28;20056;-83
2022/08/28 07:08:36;;;;;;;4.15;2.20;;;18.00;99.90;;;;;;5024604;28;20030;-80
2022/08/28 07:11:16;;;;;;;3.15;1.95;;;18.20;99.90;;;;;;5024879;28;20679;-79
2022/08/28 07:13:43;;;;;;;2.63;1.98;;;18.50;99.90;;;;;;5023430;28;20030;-78
2022/08/28 07:16:11;;;;;;;3.03;1.95;;;18.40;99.90;;;;;;5021106;28;20029;-80
2022/08/28 07:18:37;;;;;;;6.70;1.92;;;18.40;99.90;;;;;;5017214;28;20025;-81
2022/08/28 07:21:02;;;;;;;2.97;2.03;;;18.20;99.90;;;;;;5021807;28;20472;-80
2022/08/28 07:23:30;;;;;;;3.38;2.22;;;18.30;99.90;;;;;;5026593;28;20415;-80
2022/08/28 07:25:56;;;;;;;5.78;1.80;;;18.70;99.90;;;;;;5024054;28;20488;-80
2022/08/28 07:28:22;;;;;;;3.80;2.15;;;18.80;99.90;;;;;;5023560;28;20044;-79
2022/08/28 07:31:03;;;;;;;5.45;1.95;;;19.00;99.90;;;;;;5015591;28;20075;-79
2022/08/28 07:33:30;;;;;;;3.80;1.45;;;19.20;99.90;;;;;;5018044;28;20041;-81
2022/08/28 07:35:56;;;;;;;6.03;1.52;;;19.20;99.90;;;;;;5019500;28;20045;-80
2022/08/28 07:38:24;;;;;;;3.78;1.83;;;19.50;99.90;;;;;;5024453;28;20854;-80
2022/08/28 07:40:50;;;;;;;4.63;2.40;;;19.20;99.90;;;;;;5023868;28;20491;-76
2022/08/28 07:46:04;;;;;;;3.00;1.90;;;19.10;99.90;;;;;;5015000;28;20132;-81
2022/08/28 07:48:29;;;;;;;5.75;1.65;;;19.20;99.90;;;;;;5011617;28;20108;-79
2022/08/28 07:50:55;;;;;;;3.08;1.70;;;19.30;99.90;;;;;;5024396;28;20476;-80
2022/08/28 07:53:21;;;;;;;2.20;1.50;;;19.30;99.90;;;;;;5026508;28;20075;-80
2022/08/28 07:55:49;;;;;;;2.65;2.05;;;19.60;99.90;;;;;;5024475;28;20018;-81
2022/08/28 07:58:15;;;;;;;4.18;1.73;;;19.70;99.90;;;;;;5022854;28;20408;-82
2022/08/28 08:00:40;;;;;;;4.53;2.17;;;19.40;99.90;;;;;;5020145;28;20026;-82
2022/08/28 08:03:06;;;;;;;1.80;1.55;;;19.70;99.90;;;;;;5019909;28;20116;-79
2022/08/28 08:05:31;;;;;;;3.10;1.67;;;19.70;99.90;;;;;;5021896;28;20022;-80
2022/08/28 08:07:57;;;;;;;3.33;1.60;;;19.60;99.90;;;;;;5019752;28;20028;-80
2022/08/28 08:10:22;;;;;;;1.80;1.33;;;19.60;99.90;;;;;;5024556;28;20544;-78
2022/08/28 08:12:48;;;;;;;6.70;1.83;;;19.70;99.90;;;;;;5015235;28;20069;-78
2022/08/28 08:15:13;;;;;;;5.43;2.22;;;19.40;99.90;;;;;;5015419;28;20063;-79
2022/08/28 08:17:39;;;;;;;4.30;2.17;;;19.50;99.90;;;;;;5019004;28;20049;-80
2022/08/28 08:20:07;;;;;;;3.22;1.95;;;19.60;99.90;;;;;;5022309;28;20029;-81
2022/08/28 08:22:33;;;;;;;3.13;2.20;;;19.30;99.90;;;;;;5023718;28;20022;-77
2022/08/28 08:24:59;;;;;;;3.97;1.65;;;18.90;99.90;;;;;;5021673;28;20025;-78
2022/08/28 08:27:25;;;;;;;2.75;1.80;;;18.70;99.90;;;;;;5022896;28;20037;-79
2022/08/28 08:29:50;;;;;;;3.22;1.83;;;18.80;99.90;;;;;;5023626;28;20037;-79
2022/08/28 08:32:16;;;;;;;4.15;2.28;;;18.80;99.90;;;;;;5025651;28;20017;-79
2022/08/28 08:34:44;;;;;;;7.10;2.80;;;18.80;99.90;;;;;;5021057;28;20029;-79
2022/08/28 08:37:12;;;;;;;3.90;2.33;;;18.30;99.90;;;;;;5020327;28;20087;-78
2022/08/28 08:39:40;;;;;;;5.38;2.17;;;18.40;99.90;;;;;;5026940;28;20095;-79
2022/08/28 08:42:17;;;;;;;3.70;1.92;;;18.40;99.90;;;;;;5022476;28;20112;-79
2022/08/28 08:44:46;;;;;;;2.90;1.83;;;18.60;99.90;;;;;;5022499;28;20029;-78
2022/08/28 08:47:24;;;;;;;5.45;1.98;;;18.50;99.90;;;;;;5007028;28;20032;-80
2022/08/28 08:50:02;;;;;;;2.90;1.77;;;18.40;99.90;;;;;;5012527;28;20387;-80
2022/08/28 08:52:39;;;;;;;2.83;1.48;;;18.50;99.90;;;;;;5015146;28;20173;-81
2022/08/28 08:55:27;;;;;;;4.05;2.17;;;18.60;99.90;;;;;;5019885;28;20029;-78
2022/08/28 08:58:14;;;;;;;3.83;1.90;;;18.90;99.90;;;;;;5021941;28;20459;-87
2022/08/28 09:01:09;;;;;;;3.35;2.00;;;18.70;99.90;;;;;;5018463;28;20026;-80
2022/08/28 09:03:50;;;;;;;4.53;2.40;;;19.10;99.90;;;;;;4978220;28;20033;-81
2022/08/28 09:06:31;;;;;;;6.15;3.30;;;19.20;99.90;;;;;;5026473;28;20685;-83
2022/08/28 09:09:10;;;;;;;6.75;2.30;;;19.00;99.90;;;;;;5017794;28;20091;-85
2022/08/28 09:12:09;;;;;;;7.72;2.67;;;19.10;99.90;;;;;;5021753;28;21153;-79
2022/08/28 09:14:43;;;;;;;3.47;1.73;;;19.40;99.90;;;;;;5018272;28;20041;-80
2022/08/28 09:17:10;;;;;;;5.05;2.70;;;19.10;99.90;;;;;;5021362;28;20029;-87
2022/08/28 09:19:36;;;;;;;2.95;1.90;;;18.70;99.90;;;;;;5019060;28;20029;-89
2022/08/28 09:22:02;;;;;;;3.88;1.85;;;18.80;99.90;;;;;;5001382;28;21804;-87
2022/08/28 09:24:31;;;;;;;3.13;2.22;;;18.90;99.90;;;;;;5021690;28;20025;-87
2022/08/28 09:27:20;;;;;;;3.22;2.03;;;18.60;99.90;;;;;;5021224;28;20018;-85
2022/08/28 09:30:04;;;;;;;3.08;2.17;;;18.70;99.90;;;;;;5023946;28;20641;-88
2022/08/28 09:32:55;;;;;;;3.90;2.22;;;18.90;99.90;;;;;;5022956;28;20404;-86
2022/08/28 09:35:28;;;;;;;;;;;18.70;99.90;;;;;;5016746;28;20049;-87
2022/08/28 09:37:55;;;;;;;6.68;2.10;;;18.70;99.90;;;;;;5019462;28;19998;-86
2022/08/28 09:40:21;;;;;;;3.75;2.53;;;19.10;99.90;;;;;;5020014;28;20423;-89
2022/08/28 09:43:28;;;;;;;3.63;1.92;;;19.30;99.90;;;;;;5019717;28;20087;-85
2022/08/28 09:46:01;;;;;;;8.85;2.88;;;19.50;99.90;;;;;;5017197;28;20049;-88
2022/08/28 09:48:42;;;;;;;3.85;1.83;;;19.40;99.90;;;;;;5025307;28;20495;-87
2022/08/28 09:51:19;;;;;;;8.07;2.47;;;19.50;99.90;;;;;;5015039;28;20033;-87
2022/08/28 09:53:50;;;;;;;4.70;2.03;;;19.60;99.90;;;;;;5025833;28;20068;-87
2022/08/28 09:56:35;;;;;;;4.03;2.67;;;19.60;99.90;;;;;;5024365;28;20026;-85
2022/08/28 09:59:16;;;;;;;4.22;2.42;;;19.40;99.90;;;;;;5018143;28;20107;-84
2022/08/28 10:01:42;;;;;;;7.20;2.00;;;19.00;99.90;;;;;;5020802;28;20057;-87
2022/08/28 10:04:19;;;;;;;3.63;2.40;;;18.90;99.90;;;;;;5019523;28;20056;-87
2022/08/28 10:07:03;;;;;;;7.10;3.22;;;18.90;99.90;;;;;;5020459;28;20032;-87
2022/08/28 10:09:55;;;;;;;5.47;2.67;;;18.60;99.90;;;;;;5026188;28;20392;-87
2022/08/28 10:12:46;;;;;;;3.40;2.03;;;18.30;99.90;;;;;;5023190;28;20025;-86
2022/08/28 10:15:36;;;;;;;3.17;2.10;;;18.30;99.90;;;;;;5022355;28;20030;-85
2022/08/28 10:18:50;;;;;;;3.73;2.87;;;18.30;99.90;;;;;;5018246;28;20073;-80
2022/08/28 10:21:43;;;;;;;4.72;2.45;;;18.60;99.90;;;;;;5022827;28;20636;-80
2022/08/28 10:24:56;;;;;;;8.52;2.90;;;18.80;99.90;;;;;;5019992;28;20112;-79
2022/08/28 10:27:47;;;;;;;3.83;2.35;;;18.50;99.90;;;;;;5021817;28;20586;-80
2022/08/28 10:30:19;;;;;;;3.30;2.40;;;18.40;99.90;;;;;;5021008;28;20089;-79
2022/08/28 10:33:02;;;;;;;4.03;2.38;;;18.40;99.90;;;;;;5025261;28;20029;-81
2022/08/28 10:35:50;;;;;;;6.65;3.13;;;18.40;99.90;;;;;;5020321;28;20479;-79
2022/08/28 10:38:22;;;;;;;6.60;2.63;;;18.20;99.90;;;;;;5022704;28;20768;-80
2022/08/28 10:41:07;;;;;;;7.82;3.85;;;18.20;99.90;;;;;;5021718;28;20514;-86
2022/08/28 10:43:44;;;;;;;4.10;2.70;;;18.40;99.90;;;;;;5023610;28;20033;-86
2022/08/28 10:46:15;;;;;;;4.72;2.92;;;18.70;99.90;;;;;;5023931;28;20069;-84
2022/08/28 10:48:49;;;;;;;2.83;2.25;;;18.90;99.90;;;;;;5020497;28;20063;-84
2022/08/28 10:51:39;;;;;;;4.05;3.15;;;18.90;99.90;;;;;;5026807;28;20025;-85
2022/08/28 10:54:12;;;;;;;4.93;3.03;;;18.70;99.90;;;;;;5014413;28;20492;-84
2022/08/28 10:56:43;;;;;;;6.40;2.58;;;18.60;99.90;;;;;;5018908;28;20037;-85
2022/08/28 10:59:09;;;;;;;3.47;2.50;;;18.70;99.90;;;;;;5017779;28;20037;-84
2022/08/28 11:01:37;;;;;;;9.05;2.22;;;18.70;99.90;;;;;;5018305;28;20099;-83
2022/08/28 11:04:09;;;;;;;4.57;2.78;;;18.80;99.90;;;;;;5019281;28;20802;-85
2022/08/28 11:06:40;;;;;;;5.15;2.83;;;18.60;99.90;;;;;;5019427;28;20022;-84
2022/08/28 11:09:32;;;;;;;6.25;2.90;;;18.70;99.90;;;;;;5018896;28;20036;-85
2022/08/28 11:12:02;;;;;;;5.57;3.25;;;18.80;99.90;;;;;;5020110;28;20029;-87
2022/08/28 11:14:40;;;;;;;6.40;2.63;;;19.00;99.90;;;;;;5017920;28;20033;-85
2022/08/28 11:17:30;;;;;;;5.88;2.70;;;18.60;99.90;;;;;;5013562;28;20035;-86
2022/08/28 11:20:15;;;;;;;7.82;2.88;;;18.70;99.90;;;;;;5016616;28;20037;-87
2022/08/28 11:22:50;;;;;;;3.97;2.55;;;18.50;99.90;;;;;;5018656;28;20069;-85
2022/08/28 11:25:37;;;;;;;5.03;2.63;;;18.50;99.90;;;;;;5017804;28;20026;-85
2022/08/28 11:28:35;;;;;;;4.45;2.75;;;18.60;99.90;;;;;;5013200;28;20634;-84
2022/08/28 11:31:03;;;;;;;6.50;3.00;;;19.10;99.90;;;;;;5014187;28;20184;-82
2022/08/28 11:33:41;;;;;;;5.25;3.10;;;19.00;99.90;;;;;;5011453;28;20033;-79
2022/08/28 11:36:31;;;;;;;4.40;2.70;;;19.10;99.90;;;;;;5009924;28;20537;-82
2022/08/28 11:39:01;;;;;;;5.50;2.15;;;18.90;99.90;;;;;;5017460;28;20041;-78
2022/08/28 11:41:37;;;;;;;4.35;3.05;;;18.90;99.90;;;;;;5017380;28;20025;-78
2022/08/28 11:44:09;;;;;;;3.38;2.17;;;19.10;99.90;;;;;;5023169;28;20124;-80
2022/08/28 11:46:37;;;;;;;9.13;2.50;;;19.20;99.90;;;;;;5020082;28;20089;-83
2022/08/28 11:49:25;;;;;;;8.85;2.65;;;18.90;99.90;;;;;;5009762;28;20029;-79
2022/08/28 11:52:12;;;;;;;4.43;2.97;;;18.40;99.90;;;;;;5009305;28;20717;-78
2022/08/28 11:55:03;;;;;;;4.28;2.33;;;18.80;99.90;;;;;;5021510;28;20679;-81
2022/08/28 11:57:51;;;;;;;7.15;3.25;;;18.80;99.90;;;;;;5020648;28;20033;-82
2022/08/28 12:00:51;;;;;;;5.05;2.88;;;18.90;99.90;;;;;;5019485;28;20033;-80
2022/08/28 12:03:30;;;;;;;7.95;3.20;;;18.80;99.90;;;;;;5017743;28;20570;-82
2022/08/28 12:05:57;;;;;;;3.92;2.80;;;18.70;99.90;;;;;;5018658;28;20034;-79
2022/08/28 12:08:47;;;;;;;2.67;2.17;;;18.80;99.90;;;;;;5023072;28;20021;-89
2022/08/28 12:11:38;;;;;;;2.78;2.00;;;18.80;99.90;;;;;;5020682;28;20032;-87
2022/08/28 12:14:04;;;;;;;4.93;2.95;;;18.80;99.90;;;;;;5016608;28;20113;-83
2022/08/28 12:16:58;;;;;;;8.73;3.08;;;18.80;99.90;;;;;;5015636;28;20040;-80
2022/08/28 12:19:39;;;;;;;5.47;2.38;;;18.60;99.90;;;;;;5021085;28;20030;-81
2022/08/28 12:22:10;;;;;;;4.22;2.67;;;18.60;99.90;;;;;;5010488;28;20034;-85
2022/08/28 12:24:48;;;;;;;5.93;3.00;;;18.70;99.90;;;;;;5020981;28;20432;-79
2022/08/28 12:27:14;;;;;;;5.30;3.10;;;18.50;99.90;;;;;;5019956;28;20380;-79
2022/08/28 12:29:49;;;;;;;5.20;2.75;;;18.80;99.90;;;;;;5026327;28;20033;-78
2022/08/28 12:32:23;;;;;;;2.83;1.92;;;19.40;99.90;;;;;;5019696;28;20030;-79
2022/08/28 12:35:01;;;;;;;3.50;2.58;;;19.50;99.90;;;;;;5025270;28;20281;-83
2022/08/28 12:37:36;;;;;;;4.45;2.40;;;19.20;99.90;;;;;;5017873;28;20055;-79
2022/08/28 12:40:11;;;;;;;2.70;1.80;;;19.40;99.90;;;;;;5018414;28;20369;-84
2022/08/28 12:42:47;;;;;;;4.28;2.63;;;19.40;99.90;;;;;;4998611;28;20021;-85
2022/08/28 12:45:24;;;;;;;4.50;2.45;;;19.10;99.90;;;;;;5012417;28;20108;-84
2022/08/28 12:47:52;;;;;;;6.45;3.25;;;19.10;99.90;;;;;;5012907;28;20029;-80
2022/08/28 12:50:25;;;;;;;5.50;3.28;;;19.30;99.90;;;;;;5015566;28;20430;-80
2022/08/28 12:52:53;;;;;;;3.55;1.92;;;19.30;99.90;;;;;;5013677;28;20034;-79
2022/08/28 12:55:20;;;;;;;7.90;2.67;;;19.00;99.90;;;;;;5017887;28;20075;-82
2022/08/28 12:57:47;;;;;;;5.13;1.92;;;18.80;99.90;;;;;;5011167;28;20033;-80
2022/08/28 13:00:21;;;;;;;7.18;2.67;;;18.70;99.90;;;;;;5020584;28;20022;-82
2022/08/28 13:02:48;;;;;;;7.30;3.03;;;18.80;99.90;;;;;;5018424;28;20031;-89
2022/08/28 13:05:32;;;;;;;8.63;3.28;;;18.60;99.90;;;;;;5015876;28;20025;-80
2022/08/28 13:08:00;;;;;;;3.60;1.77;;;18.70;99.90;;;;;;5013765;28;20021;-87
2022/08/28 13:10:35;;;;;;;8.35;2.22;;;19.20;99.90;;;;;;5017252;28;20116;-86
2022/08/28 13:13:36;;;;;;;2.90;2.17;;;19.40;99.90;;;;;;5013272;28;20024;-82
2022/08/28 13:16:07;;;;;;;4.93;2.65;;;19.40;99.90;;;;;;5013925;28;20131;-79